Time;durP1;ratioP1;P1;durP2;ratioP2;P2;SDS_P1;SDS_P2;PMS_P1;PMS_P2;Temp;Humidity;BMP_temperature;BMP_pressure;BME280_temperature;BME280_humidity;BME280_pressure;Samples;Min_cycle;Max_cycle;Signal;HPM_P1;HPM_P2
2022/04/15 08:51:24;;;;;;;24.73;16.45;;;;;;;;;;7369980;19;132548;-17
2022/04/15 08:53:56;;;;;;;18.63;13.18;;;;;;;;;;7365974;19;153904;-17
2022/04/15 08:56:28;;;;;;;17.43;11.50;;;;;;;;;;7367862;19;161817;-16
2022/04/15 08:58:59;;;;;;;18.88;14.00;;;;;;;;;;7364276;19;162128;-15
2022/04/15 09:01:31;;;;;;;27.13;15.68;;;;;;;;;;7365998;19;154034;-15
2022/04/15 09:04:03;;;;;;;25.27;16.73;;;;;;;;;;7367318;19;153719;-16
2022/04/15 09:06:38;;;;;;;27.37;16.67;;;;;;;;;;7367645;19;161977;-17
2022/04/15 09:09:12;;;;;;;28.38;18.73;;;;;;;;;;7364953;19;162506;-17
2022/04/15 09:11:45;;;;;;;27.60;18.83;;;;;;;;;;7366351;19;153794;-17
2022/04/15 09:14:17;;;;;;;26.10;17.10;;;;;;;;;;7367482;19;153452;-17
2022/04/15 09:16:50;;;;;;;26.95;18.20;;;;;;;;;;7367931;19;161901;-16
2022/04/15 09:19:22;;;;;;;25.35;17.48;;;;;;;;;;7364347;19;162143;-14
2022/04/15 09:21:58;;;;;;;26.50;17.08;;;;;;;;;;7366712;19;153900;-17
2022/04/15 09:24:30;;;;;;;25.73;16.10;;;;;;;;;;7367515;19;153837;-17
2022/04/15 09:27:05;;;;;;;29.15;18.58;;;;;;;;;;7364442;19;161795;-17
2022/04/15 09:29:38;;;;;;;25.23;17.38;;;;;;;;;;7365162;19;162567;-16
2022/04/15 09:32:14;;;;;;;24.10;15.63;;;;;;;;;;7367452;19;153986;-16
2022/04/15 09:34:58;;;;;;;22.10;15.18;;;;;;;;;;7367793;19;153550;-16
2022/04/15 09:37:34;;;;;;;23.63;15.40;;;;;;;;;;7364989;19;161925;-15
2022/04/15 09:40:11;;;;;;;21.23;15.32;;;;;;;;;;7364879;19;162337;-16
2022/04/15 09:42:47;;;;;;;22.30;15.10;;;;;;;;;;7367606;19;154045;-15
2022/04/15 09:45:20;;;;;;;22.85;15.45;;;;;;;;;;7364736;19;153589;-14
2022/04/15 09:47:57;;;;;;;23.45;15.45;;;;;;;;;;7365348;19;163470;-15
2022/04/15 09:50:29;;;;;;;21.65;15.38;;;;;;;;;;7358083;19;162646;-15
2022/04/15 09:53:13;;;;;;;20.40;14.23;;;;;;;;;;7338016;19;154101;-15
2022/04/15 09:55:46;;;;;;;20.83;14.45;;;;;;;;;;7338351;19;153490;-15
2022/04/15 09:58:21;;;;;;;21.92;14.32;;;;;;;;;;7337007;19;162298;-14
2022/04/15 10:00:54;;;;;;;22.30;13.48;;;;;;;;;;7335365;19;162685;-16
2022/04/15 10:03:27;;;;;;;19.67;14.50;;;;;;;;;;7335682;19;154082;-15
2022/04/15 10:05:59;;;;;;;19.13;13.73;;;;;;;;;;7336747;19;153661;-15
2022/04/15 10:08:34;;;;;;;18.70;13.70;;;;;;;;;;7337354;19;161843;-14
2022/04/15 10:11:07;;;;;;;20.58;13.05;;;;;;;;;;7334153;19;162459;-16
2022/04/15 10:13:38;;;;;;;18.67;12.95;;;;;;;;;;7335618;19;154318;-15
2022/04/15 10:16:11;;;;;;;17.88;13.25;;;;;;;;;;7336658;19;153576;-16
2022/04/15 10:18:44;;;;;;;17.38;12.07;;;;;;;;;;7337168;19;161974;-16
2022/04/15 10:21:15;;;;;;;18.40;12.20;;;;;;;;;;7332169;19;163066;-16
2022/04/15 10:23:50;;;;;;;17.15;11.25;;;;;;;;;;7335211;19;153854;-16
2022/04/15 10:26:23;;;;;;;17.38;12.25;;;;;;;;;;7336702;19;153800;-17
2022/04/15 10:28:56;;;;;;;17.63;12.02;;;;;;;;;;7336865;19;161742;-14
2022/04/15 10:31:39;;;;;;;18.08;11.20;;;;;;;;;;7334055;19;162236;-16
2022/04/15 10:34:12;;;;;;;17.38;11.43;;;;;;;;;;7334815;19;154103;-16
2022/04/15 10:36:51;;;;;;;15.55;10.52;;;;;;;;;;7336869;19;153781;-16
2022/04/15 10:39:29;;;;;;;14.85;11.02;;;;;;;;;;7332063;19;162025;-17
2022/04/15 10:42:05;;;;;;;17.55;10.95;;;;;;;;;;7332907;19;162659;-17
2022/04/15 10:44:39;;;;;;;14.90;10.35;;;;;;;;;;7336309;19;153922;-14
2022/04/15 10:47:16;;;;;;;15.65;9.52;;;;;;;;;;7333406;19;153600;-16
2022/04/15 10:49:57;;;;;;;14.90;10.70;;;;;;;;;;7331712;19;161853;-14
2022/04/15 10:52:30;;;;;;;15.02;10.15;;;;;;;;;;7335434;19;162522;-17
2022/04/15 10:55:05;;;;;;;14.95;10.90;;;;;;;;;;7332855;19;154095;-14
2022/04/15 10:57:37;;;;;;;15.10;10.18;;;;;;;;;;7333756;19;153542;-15
2022/04/15 11:02:58;;;;;;;15.15;10.00;;;;;;;;;;7330020;19;162389;-17
2022/04/15 11:05:38;;;;;;;14.32;9.75;;;;;;;;;;7333643;19;153934;-14
2022/04/15 11:08:12;;;;;;;13.93;9.50;;;;;;;;;;7334810;19;153631;-15
2022/04/15 11:11:07;;;;;;;12.35;8.90;;;;;;;;;;7335477;19;161920;-15
2022/04/15 11:14:03;;;;;;;13.20;9.25;;;;;;;;;;7333460;19;162391;-14
2022/04/15 11:16:46;;;;;;;12.02;8.13;;;;;;;;;;7335584;19;153947;-15
2022/04/15 11:19:24;;;;;;;14.73;8.80;;;;;;;;;;7333101;19;153256;-17
2022/04/15 11:21:56;;;;;;;9.35;8.02;;;;;;;;;;7331611;19;161491;-14
2022/04/15 11:24:30;;;;;;;10.15;8.10;;;;;;;;;;7334580;19;162392;-16
2022/04/15 11:27:05;;;;;;;11.52;8.20;;;;;;;;;;7332544;19;154088;-16
2022/04/15 11:29:37;;;;;;;12.25;8.38;;;;;;;;;;7333405;19;153611;-16
2022/04/15 11:32:10;;;;;;;11.00;8.20;;;;;;;;;;7334181;19;161925;-15
2022/04/15 11:34:42;;;;;;;;;;;;;;;;;;7335400;19;162519;-15
2022/04/15 11:37:13;;;;;;;9.88;7.50;;;;;;;;;;7332659;19;154051;-15
2022/04/15 11:39:47;;;;;;;11.32;7.82;;;;;;;;;;7332038;19;153714;-16
2022/04/15 11:42:21;;;;;;;9.57;7.15;;;;;;;;;;7332676;19;161909;-17
2022/04/15 11:44:52;;;;;;;11.05;7.53;;;;;;;;;;7333384;19;162550;-16
2022/04/15 11:47:25;;;;;;;9.98;7.07;;;;;;;;;;7335084;19;153957;-16
2022/04/15 11:49:56;;;;;;;9.38;6.93;;;;;;;;;;7330845;19;154304;-15
2022/04/15 11:52:29;;;;;;;11.18;8.48;;;;;;;;;;7334214;19;161841;-24
2022/04/15 11:55:01;;;;;;;9.55;7.13;;;;;;;;;;7331331;19;162475;-15
2022/04/15 11:57:36;;;;;;;9.40;6.97;;;;;;;;;;7332249;19;154077;-14
2022/04/15 12:00:10;;;;;;;11.95;7.20;;;;;;;;;;7333522;19;153518;-16
2022/04/15 12:02:44;;;;;;;9.23;6.38;;;;;;;;;;7331709;19;161797;-16
2022/04/15 12:05:16;;;;;;;7.70;6.20;;;;;;;;;;7331588;19;162390;-14
2022/04/15 12:07:48;;;;;;;10.57;6.20;;;;;;;;;;7332238;19;154091;-17
2022/04/15 12:10:20;;;;;;;9.00;6.40;;;;;;;;;;7333841;19;153819;-17
2022/04/15 12:12:55;;;;;;;11.55;6.00;;;;;;;;;;7334256;19;161787;-16
2022/04/15 12:15:28;;;;;;;7.85;6.30;;;;;;;;;;7330976;19;162816;-16
2022/04/15 12:18:00;;;;;;;8.40;6.22;;;;;;;;;;7332393;19;154301;-17
2022/04/15 12:20:32;;;;;;;8.33;5.83;;;;;;;;;;7333817;19;153702;-17
2022/04/15 12:23:04;;;;;;;9.45;6.72;;;;;;;;;;7327163;19;161767;-14
2022/04/15 12:31:05;;;;;;;14.80;6.13;;;;;;;;;;7330861;19;153937;-15
2022/04/15 12:33:48;;;;;;;8.88;5.78;;;;;;;;;;7330489;19;162078;-15
2022/04/15 12:36:20;;;;;;;9.65;5.95;;;;;;;;;;7332753;19;162356;-14
2022/04/15 12:39:02;;;;;;;8.13;5.25;;;;;;;;;;7327073;19;154011;-15
2022/04/15 12:41:41;;;;;;;9.35;5.13;;;;;;;;;;7329225;19;153566;-15
2022/04/15 12:44:20;;;;;;;8.48;5.43;;;;;;;;;;7329688;19;163048;-17
2022/04/15 12:46:58;;;;;;;9.75;5.63;;;;;;;;;;7328973;19;162564;-15
2022/04/15 12:49:33;;;;;;;11.50;5.88;;;;;;;;;;7326027;19;153953;-15
2022/04/15 12:52:15;;;;;;;10.30;5.78;;;;;;;;;;7304799;19;155088;-15
2022/04/15 12:55:04;;;;;;;8.70;5.35;;;;;;;;;;7328524;19;161916;-15
2022/04/15 12:57:36;;;;;;;5.90;4.70;;;;;;;;;;7326441;19;162340;-15
2022/04/15 13:00:13;;;;;;;9.20;4.28;;;;;;;;;;7330006;19;154062;-16
2022/04/15 13:02:44;;;;;;;6.95;5.63;;;;;;;;;;7328710;19;153804;-16
2022/04/15 13:05:16;;;;;;;7.88;5.20;;;;;;;;;;7329889;19;161921;-15
2022/04/15 13:07:49;;;;;;;8.43;5.00;;;;;;;;;;7329477;19;163111;-17
2022/04/15 13:10:20;;;;;;;;;;;;;;;;;;7331950;19;154448;-16
2022/04/15 13:13:11;;;;;;;6.40;4.35;;;;;;;;;;7331030;19;153659;-16
2022/04/15 13:15:47;;;;;;;6.80;4.72;;;;;;;;;;7330562;19;161779;-16
2022/04/15 13:18:19;;;;;;;9.35;4.28;;;;;;;;;;7330841;19;162598;-17
2022/04/15 13:20:50;;;;;;;6.45;3.88;;;;;;;;;;7332363;19;154057;-16
2022/04/15 13:23:22;;;;;;;5.97;4.43;;;;;;;;;;7329745;19;153535;-17
2022/04/15 13:25:53;;;;;;;6.47;3.92;;;;;;;;;;7330169;19;162541;-14
2022/04/15 13:28:24;;;;;;;7.80;4.65;;;;;;;;;;7337397;19;162378;-16
2022/04/15 13:30:58;;;;;;;6.72;4.32;;;;;;;;;;7338944;19;154101;-15
2022/04/15 13:33:32;;;;;;;5.90;4.47;;;;;;;;;;7337738;19;153706;-15
2022/04/15 13:36:03;;;;;;;4.03;3.55;;;;;;;;;;7335670;19;161836;-16
2022/04/15 13:38:35;;;;;;;5.82;3.65;;;;;;;;;;7336972;19;162645;-17
2022/04/15 13:41:10;;;;;;;6.80;4.40;;;;;;;;;;7335762;19;153975;-15
2022/04/15 13:43:41;;;;;;;5.32;4.20;;;;;;;;;;7334725;19;153896;-15
2022/04/15 13:46:15;;;;;;;4.32;3.63;;;;;;;;;;7337311;19;161807;-16
2022/04/15 13:48:46;;;;;;;5.70;4.32;;;;;;;;;;7335957;19;162437;-16
2022/04/15 13:51:17;;;;;;;5.95;4.07;;;;;;;;;;7333124;19;154198;-16
2022/04/15 13:56:39;;;;;;;6.53;3.78;;;;;;;;;;7337704;19;161915;-17
2022/04/15 13:59:11;;;;;;;4.45;3.38;;;;;;;;;;7334998;19;162386;-14
2022/04/15 14:01:47;;;;;;;5.60;4.18;;;;;;;;;;7336495;19;153997;-16
2022/04/15 14:04:19;;;;;;;4.80;4.20;;;;;;;;;;7335068;19;153516;-15
2022/04/15 14:06:52;;;;;;;5.07;3.77;;;;;;;;;;7337913;19;162392;-15
2022/04/15 14:09:23;;;;;;;7.43;4.15;;;;;;;;;;7334990;19;162366;-16
2022/04/15 14:11:55;;;;;;;4.55;3.63;;;;;;;;;;7336594;19;154063;-16
2022/04/15 14:14:26;;;;;;;4.22;3.45;;;;;;;;;;7337425;19;153648;-16
2022/04/15 14:17:00;;;;;;;4.22;3.28;;;;;;;;;;7334131;19;161922;-15
2022/04/15 14:19:31;;;;;;;5.10;3.53;;;;;;;;;;7335245;19;162514;-16
2022/04/15 14:22:02;;;;;;;5.88;3.40;;;;;;;;;;7336584;19;154737;-15
2022/04/15 14:24:34;;;;;;;4.07;3.35;;;;;;;;;;7333976;19;153906;-17
2022/04/15 14:27:07;;;;;;;4.00;3.20;;;;;;;;;;7334393;19;161817;-15
2022/04/15 14:29:38;;;;;;;7.40;3.08;;;;;;;;;;7335164;19;162535;-17
2022/04/15 14:32:12;;;;;;;3.55;3.25;;;;;;;;;;7336527;19;154270;-15
2022/04/15 14:34:43;;;;;;;4.95;3.15;;;;;;;;;;7337301;19;153789;-16
2022/04/15 14:37:14;;;;;;;3.78;3.35;;;;;;;;;;7334123;19;161934;-16
2022/04/15 14:39:45;;;;;;;5.70;3.40;;;;;;;;;;7335202;19;162297;-15
2022/04/15 14:42:18;;;;;;;4.55;3.28;;;;;;;;;;7335362;19;154046;-17
2022/04/15 14:44:49;;;;;;;4.40;3.63;;;;;;;;;;7334555;19;153632;-15
2022/04/15 14:47:23;;;;;;;5.60;3.15;;;;;;;;;;7334859;19;162022;-17
2022/04/15 14:49:55;;;;;;;4.53;2.85;;;;;;;;;;7335579;19;162265;-17
2022/04/15 14:52:26;;;;;;;4.07;2.95;;;;;;;;;;7336405;19;154368;-15
2022/04/15 14:55:00;;;;;;;3.92;3.13;;;;;;;;;;7333314;19;153567;-16
2022/04/15 14:57:32;;;;;;;6.13;3.33;;;;;;;;;;7333995;19;161816;-16
2022/04/15 15:00:05;;;;;;;5.28;3.60;;;;;;;;;;7334772;19;163846;-17
2022/04/15 15:02:42;;;;;;;4.47;2.90;;;;;;;;;;7336462;19;154053;-18
2022/04/15 15:05:16;;;;;;;3.08;2.53;;;;;;;;;;7333405;19;153785;-15
2022/04/15 15:07:48;;;;;;;3.80;2.90;;;;;;;;;;7336240;19;162052;-17
2022/04/15 15:10:19;;;;;;;3.55;2.13;;;;;;;;;;7335121;19;162347;-16
2022/04/15 15:12:52;;;;;;;4.20;2.60;;;;;;;;;;7336573;19;154130;-16
2022/04/15 15:15:23;;;;;;;5.22;2.90;;;;;;;;;;7333649;19;154184;-15
2022/04/15 15:17:59;;;;;;;3.28;2.70;;;;;;;;;;7334096;19;161948;-16
2022/04/15 15:20:31;;;;;;;3.60;2.60;;;;;;;;;;7335230;19;162297;-14
2022/04/15 15:23:03;;;;;;;4.27;3.10;;;;;;;;;;7332878;19;154034;-17
2022/04/15 15:31:02;;;;;;;3.85;2.55;;;;;;;;;;7331292;19;162381;-17
2022/04/15 15:33:36;;;;;;;4.90;2.60;;;;;;;;;;7333300;19;153978;-15
2022/04/15 15:36:15;;;;;;;5.60;2.70;;;;;;;;;;7334277;19;153522;-17
2022/04/15 15:38:47;;;;;;;3.05;2.30;;;;;;;;;;7335216;19;161858;-17
2022/04/15 15:41:19;;;;;;;3.40;2.60;;;;;;;;;;7329279;19;162454;-16
2022/04/15 15:43:50;;;;;;;3.55;2.90;;;;;;;;;;7328611;19;154188;-18
2022/04/15 15:46:21;;;;;;;4.53;2.97;;;;;;;;;;7330418;19;153503;-15
2022/04/15 15:48:55;;;;;;;3.58;2.65;;;;;;;;;;7330491;19;162679;-14
2022/04/15 15:51:29;;;;;;;5.30;2.50;;;;;;;;;;7332241;19;162587;-15
2022/04/15 15:54:02;;;;;;;6.20;2.72;;;;;;;;;;7332618;19;153734;-16
2022/04/15 15:56:34;;;;;;;4.20;2.40;;;;;;;;;;7334852;19;153757;-16
2022/04/15 15:59:06;;;;;;;3.70;2.60;;;;;;;;;;7328631;19;162556;-17
2022/04/15 16:01:38;;;;;;;3.00;2.70;;;;;;;;;;7331964;19;162550;-14
2022/04/15 16:04:12;;;;;;;4.00;2.28;;;;;;;;;;7332951;19;153920;-16
2022/04/15 16:06:43;;;;;;;3.95;2.50;;;;;;;;;;7334550;19;153664;-18
2022/04/15 16:09:14;;;;;;;4.13;2.40;;;;;;;;;;7331348;19;162007;-17
2022/04/15 16:11:45;;;;;;;4.20;2.70;;;;;;;;;;7332291;19;162486;-17
2022/04/15 16:14:17;;;;;;;2.75;2.08;;;;;;;;;;7333662;19;154118;-15
2022/04/15 16:16:48;;;;;;;3.38;2.50;;;;;;;;;;7334503;19;153512;-16
2022/04/15 16:19:22;;;;;;;3.33;2.60;;;;;;;;;;7331129;19;162060;-16
2022/04/15 16:21:54;;;;;;;4.72;2.65;;;;;;;;;;7332384;19;162531;-17
2022/04/15 16:24:25;;;;;;;5.15;2.40;;;;;;;;;;7332668;19;153976;-15
2022/04/15 16:26:57;;;;;;;3.33;2.38;;;;;;;;;;7330696;19;153761;-17
2022/04/15 16:29:28;;;;;;;2.85;2.25;;;;;;;;;;7331078;19;161806;-15
2022/04/15 16:32:00;;;;;;;2.53;2.33;;;;;;;;;;7332160;19;162602;-16
2022/04/15 16:34:34;;;;;;;4.53;2.53;;;;;;;;;;7333162;19;154254;-15
2022/04/15 16:37:05;;;;;;;2.70;2.50;;;;;;;;;;7330409;19;153619;-15
2022/04/15 16:39:36;;;;;;;3.40;2.20;;;;;;;;;;7329919;19;161999;-15
2022/04/15 16:42:09;;;;;;;3.28;2.55;;;;;;;;;;7331928;19;162580;-15
2022/04/15 16:44:40;;;;;;;4.50;2.40;;;;;;;;;;7332424;19;154088;-15
2022/04/15 16:47:12;;;;;;;3.55;2.35;;;;;;;;;;7330383;19;153471;-15
2022/04/15 16:49:46;;;;;;;2.85;2.30;;;;;;;;;;7329771;19;161985;-15
2022/04/15 16:52:17;;;;;;;3.80;2.17;;;;;;;;;;7332058;19;163163;-16
2022/04/15 17:00:17;;;;;;;4.03;2.00;;;;;;;;;;7331755;19;162186;-17
2022/04/15 17:02:50;;;;;;;4.22;2.33;;;;;;;;;;7339369;19;162407;-15
2022/04/15 17:05:24;;;;;;;3.75;2.35;;;;;;;;;;7335894;19;154055;-16
2022/04/15 17:07:56;;;;;;;2.00;1.83;;;;;;;;;;7338295;19;153890;-16
2022/04/15 17:10:27;;;;;;;2.30;2.10;;;;;;;;;;7338786;19;161825;-17
2022/04/15 17:12:59;;;;;;;2.05;1.83;;;;;;;;;;7335707;19;162473;-15
2022/04/15 17:15:30;;;;;;;2.38;2.17;;;;;;;;;;7337001;19;154087;-17
2022/04/15 17:18:01;;;;;;;2.55;2.30;;;;;;;;;;7336868;19;153527;-15
2022/04/15 17:20:35;;;;;;;5.38;2.38;;;;;;;;;;7338433;19;162069;-15
2022/04/15 17:23:07;;;;;;;3.58;2.25;;;;;;;;;;7335835;19;162559;-16
2022/04/15 17:25:38;;;;;;;4.38;2.40;;;;;;;;;;7335801;19;154084;-14
2022/04/15 17:28:09;;;;;;;4.50;2.30;;;;;;;;;;7337919;19;153531;-15
2022/04/15 17:30:41;;;;;;;2.28;2.08;;;;;;;;;;7338505;19;161956;-17
2022/04/15 17:33:12;;;;;;;4.57;2.35;;;;;;;;;;7335480;19;162281;-14
2022/04/15 17:35:46;;;;;;;3.22;2.20;;;;;;;;;;7336668;19;154028;-17
2022/04/15 17:38:19;;;;;;;3.92;1.98;;;;;;;;;;7338164;19;153503;-16
2022/04/15 17:40:51;;;;;;;2.38;1.70;;;;;;;;;;7338485;19;162260;-16
2022/04/15 17:43:26;;;;;;;2.20;1.98;;;;;;;;;;7335809;19;162642;-17
2022/04/15 17:45:59;;;;;;;2.30;2.10;;;;;;;;;;7334904;19;153936;-17
2022/04/15 17:48:31;;;;;;;2.08;1.88;;;;;;;;;;7338109;19;153566;-15
2022/04/15 17:51:04;;;;;;;2.40;2.20;;;;;;;;;;7332480;19;162134;-16
2022/04/15 17:53:36;;;;;;;2.75;2.20;;;;;;;;;;7334003;19;162508;-15
2022/04/15 17:56:08;;;;;;;4.78;2.15;;;;;;;;;;7337224;19;154169;-17
2022/04/15 17:58:40;;;;;;;6.18;1.95;;;;;;;;;;7338195;19;153759;-17
2022/04/15 18:01:11;;;;;;;4.95;2.60;;;;;;;;;;7335001;19;162061;-14
2022/04/15 18:03:42;;;;;;;5.38;2.00;;;;;;;;;;7336062;19;162551;-15
2022/04/15 18:06:17;;;;;;;3.75;1.90;;;;;;;;;;7335772;19;154064;-14
2022/04/15 18:08:48;;;;;;;1.95;1.75;;;;;;;;;;7338264;19;153715;-14
2022/04/15 18:11:19;;;;;;;3.90;2.03;;;;;;;;;;7334375;19;161814;-15
2022/04/15 18:13:51;;;;;;;2.33;1.85;;;;;;;;;;7335984;19;162662;-16
2022/04/15 18:16:22;;;;;;;1.83;1.73;;;;;;;;;;7337241;19;154025;-14
2022/04/15 18:18:53;;;;;;;4.38;1.90;;;;;;;;;;7337692;19;153459;-17
2022/04/15 18:21:27;;;;;;;2.88;1.90;;;;;;;;;;7334668;19;161941;-15
2022/04/15 18:23:58;;;;;;;4.60;1.83;;;;;;;;;;7335860;19;162379;-15
2022/04/15 18:26:29;;;;;;;5.53;1.70;;;;;;;;;;7335654;19;154308;-16
2022/04/15 18:29:01;;;;;;;3.35;2.15;;;;;;;;;;7334135;19;153533;-15
2022/04/15 18:31:32;;;;;;;2.42;1.80;;;;;;;;;;7334895;19;162028;-15
2022/04/15 18:34:04;;;;;;;2.25;1.63;;;;;;;;;;7335622;19;162264;-15
2022/04/15 18:36:38;;;;;;;2.15;1.58;;;;;;;;;;7335747;19;154272;-14
2022/04/15 18:39:09;;;;;;;3.97;1.73;;;;;;;;;;7333999;19;153692;-16
2022/04/15 18:41:41;;;;;;;2.47;2.10;;;;;;;;;;7334568;19;161871;-17
2022/04/15 18:44:13;;;;;;;1.70;1.60;;;;;;;;;;7334424;19;162430;-17
2022/04/15 18:46:54;;;;;;;1.80;1.50;;;;;;;;;;7335681;19;154008;-15
2022/04/15 18:54:56;;;;;;;4.43;1.67;;;;;;;;;;7336714;19;162743;-16
2022/04/15 18:57:29;;;;;;;3.15;1.95;;;;;;;;;;7334485;19;154260;-17
2022/04/15 19:00:00;;;;;;;3.00;2.05;;;;;;;;;;7333920;19;153514;-16
2022/04/15 19:02:31;;;;;;;3.65;2.13;;;;;;;;;;7335703;19;161853;-16
2022/04/15 19:05:03;;;;;;;2.05;1.70;;;;;;;;;;7333065;19;162415;-16
2022/04/15 19:07:36;;;;;;;3.90;1.83;;;;;;;;;;7332249;19;154123;-16
2022/04/15 19:10:09;;;;;;;3.97;2.03;;;;;;;;;;7335470;19;153502;-16
2022/04/15 19:12:40;;;;;;;4.50;2.25;;;;;;;;;;7335972;19;162242;-17
2022/04/15 19:15:12;;;;;;;3.10;1.75;;;;;;;;;;7333223;19;162666;-17
2022/04/15 19:17:43;;;;;;;3.50;2.42;;;;;;;;;;7334398;19;154250;-15
2022/04/15 19:20:15;;;;;;;2.30;2.05;;;;;;;;;;7335491;19;153755;-16
2022/04/15 19:22:49;;;;;;;3.42;1.80;;;;;;;;;;7335641;19;161853;-15
2022/04/15 19:25:20;;;;;;;2.72;1.95;;;;;;;;;;7331505;19;162436;-16
2022/04/15 19:27:51;;;;;;;7.45;2.17;;;;;;;;;;7331936;19;153944;-16
2022/04/15 19:30:22;;;;;;;3.90;1.83;;;;;;;;;;7335029;19;153680;-15
2022/04/15 19:32:54;;;;;;;9.30;2.45;;;;;;;;;;7335593;19;161884;-17
2022/04/15 19:35:25;;;;;;;5.50;1.80;;;;;;;;;;7332907;19;162519;-16
2022/04/15 19:37:59;;;;;;;7.82;2.05;;;;;;;;;;7334345;19;155214;-16
2022/04/15 19:40:31;;;;;;;4.28;2.00;;;;;;;;;;7335306;19;153723;-17
2022/04/15 19:43:04;;;;;;;4.68;2.08;;;;;;;;;;7332011;19;162029;-17
2022/04/15 19:45:36;;;;;;;4.38;2.05;;;;;;;;;;7332001;19;162519;-15
2022/04/15 19:48:08;;;;;;;5.75;2.33;;;;;;;;;;7331953;19;154070;-15
2022/04/15 19:50:56;;;;;;;3.58;2.42;;;;;;;;;;7328432;19;153567;-17
2022/04/15 19:53:30;;;;;;;2.70;1.85;;;;;;;;;;7332502;19;161933;-15
2022/04/15 20:01:44;;;;;;;4.30;2.00;;;;;;;;;;7333024;19;153517;-17
2022/04/15 20:04:15;;;;;;;2.50;1.80;;;;;;;;;;7333737;19;161998;-16
2022/04/15 20:06:46;;;;;;;4.50;2.00;;;;;;;;;;7333882;19;162650;-15
2022/04/15 20:09:20;;;;;;;4.45;2.10;;;;;;;;;;7331997;19;154204;-16
2022/04/15 20:11:53;;;;;;;3.80;2.00;;;;;;;;;;7332070;19;153742;-14
2022/04/15 20:14:24;;;;;;;2.70;1.95;;;;;;;;;;7333989;19;161743;-16
2022/04/15 20:16:57;;;;;;;2.85;2.03;;;;;;;;;;7334452;19;162430;-17
2022/04/15 20:19:27;;;;;;;;;;;;;;;;;;7332982;19;153988;-16
2022/04/15 20:21:59;;;;;;;2.70;2.25;;;;;;;;;;7332140;19;153912;-16
2022/04/15 20:24:32;;;;;;;4.47;1.88;;;;;;;;;;7333260;19;161833;-17
2022/04/15 20:27:03;;;;;;;2.40;1.55;;;;;;;;;;7329803;19;162344;-16
2022/04/15 20:29:35;;;;;;;3.80;1.75;;;;;;;;;;7331702;19;154767;-17
2022/04/15 20:32:08;;;;;;;3.88;1.77;;;;;;;;;;7332730;19;153575;-14
2022/04/15 20:34:39;;;;;;;3.95;2.30;;;;;;;;;;7332946;19;162158;-16
2022/04/15 20:37:11;;;;;;;2.70;1.83;;;;;;;;;;7330543;19;163005;-15
2022/04/15 20:39:44;;;;;;;2.75;2.47;;;;;;;;;;7331884;19;154158;-16
2022/04/15 20:42:15;;;;;;;3.00;1.95;;;;;;;;;;7332931;19;153611;-17
2022/04/15 20:44:47;;;;;;;2.75;1.70;;;;;;;;;;7333545;19;161895;-15
2022/04/15 20:47:18;;;;;;;2.10;1.85;;;;;;;;;;7329852;19;162479;-16
2022/04/15 20:49:53;;;;;;;4.03;1.80;;;;;;;;;;7330467;19;153942;-17
2022/04/15 20:52:27;;;;;;;6.43;2.22;;;;;;;;;;7332616;19;153495;-17
2022/04/15 20:55:02;;;;;;;2.10;1.80;;;;;;;;;;7329360;19;162025;-16
2022/04/15 20:57:37;;;;;;;3.80;2.28;;;;;;;;;;7330470;19;162449;-16
2022/04/15 21:00:12;;;;;;;3.83;1.90;;;;;;;;;;7331979;19;154304;-17
2022/04/15 21:02:43;;;;;;;2.75;2.17;;;;;;;;;;7333104;19;153494;-16
2022/04/15 21:05:16;;;;;;;3.70;1.80;;;;;;;;;;7329755;19;161796;-15
2022/04/15 21:07:47;;;;;;;2.38;1.85;;;;;;;;;;7329523;19;162326;-15
2022/04/15 21:10:21;;;;;;;5.90;2.15;;;;;;;;;;7331927;19;154096;-16
2022/04/15 21:12:53;;;;;;;2.35;1.85;;;;;;;;;;7332981;19;154044;-17
2022/04/15 21:15:24;;;;;;;1.80;1.60;;;;;;;;;;7329872;19;161949;-28
2022/04/15 21:17:55;;;;;;;3.10;1.48;;;;;;;;;;7330607;19;162725;-15
2022/04/15 21:20:28;;;;;;;2.45;1.92;;;;;;;;;;7332301;19;154068;-16
2022/04/15 21:22:59;;;;;;;1.80;1.70;;;;;;;;;;7329248;19;153913;-17
2022/04/15 21:25:33;;;;;;;1.90;1.80;;;;;;;;;;7329651;19;161831;-16
2022/04/15 21:28:04;;;;;;;4.00;1.80;;;;;;;;;;7329916;19;162314;-17
2022/04/15 21:30:36;;;;;;;2.47;1.80;;;;;;;;;;7331551;19;154248;-16
2022/04/15 21:33:07;;;;;;;2.30;1.57;;;;;;;;;;7329329;19;153657;-16
2022/04/15 21:35:39;;;;;;;4.05;1.73;;;;;;;;;;7329806;19;162068;-16
2022/04/15 21:38:13;;;;;;;1.60;1.50;;;;;;;;;;7330419;19;162390;-15
2022/04/15 21:40:47;;;;;;;1.98;1.63;;;;;;;;;;7331568;19;153979;-16
2022/04/15 21:43:19;;;;;;;4.18;1.70;;;;;;;;;;7329029;19;153543;-17
2022/04/15 21:45:50;;;;;;;2.45;1.60;;;;;;;;;;7329827;19;162110;-16
2022/04/15 21:48:22;;;;;;;2.45;1.75;;;;;;;;;;7335309;19;162372;-17
2022/04/15 21:53:38;;;;;;;2.10;1.83;;;;;;;;;;7336423;19;153471;-15
2022/04/15 21:56:12;;;;;;;2.20;1.70;;;;;;;;;;7337163;19;161966;-15
2022/04/15 21:58:44;;;;;;;4.05;2.10;;;;;;;;;;7338094;19;162589;-15
2022/04/15 22:01:16;;;;;;;2.40;1.70;;;;;;;;;;7335601;19;154000;-17
2022/04/15 22:03:47;;;;;;;1.73;1.60;;;;;;;;;;7336519;19;153647;-17
2022/04/15 22:06:18;;;;;;;2.45;1.88;;;;;;;;;;7337124;19;162002;-16
2022/04/15 22:08:50;;;;;;;3.25;1.40;;;;;;;;;;7336639;19;162944;-16
2022/04/15 22:11:23;;;;;;;1.83;1.58;;;;;;;;;;7335574;19;153938;-17
2022/04/15 22:13:55;;;;;;;1.42;1.33;;;;;;;;;;7336463;19;153545;-17
2022/04/15 22:16:26;;;;;;;1.55;1.45;;;;;;;;;;7336802;19;161920;-16
2022/04/15 22:18:59;;;;;;;2.15;1.50;;;;;;;;;;7333774;19;162323;-15
2022/04/15 22:21:31;;;;;;;2.78;2.10;;;;;;;;;;7335556;19;154131;-16
2022/04/15 22:24:02;;;;;;;2.20;1.63;;;;;;;;;;7335922;19;153559;-18
2022/04/15 22:26:35;;;;;;;3.33;1.77;;;;;;;;;;7333338;19;162073;-16
2022/04/15 22:29:09;;;;;;;4.68;2.10;;;;;;;;;;7332030;19;162627;-18
2022/04/15 22:31:41;;;;;;;3.15;2.35;;;;;;;;;;7333833;19;154604;-15
2022/04/15 22:34:12;;;;;;;4.03;2.45;;;;;;;;;;7333730;19;153533;-16
2022/04/15 22:36:44;;;;;;;3.25;1.88;;;;;;;;;;7333153;19;161872;-15
